sensor_id;sensor_type;location;lat;lon;timestamp;P1;durP1;ratioP1;P2;durP2;ratioP2
47429;SDS011;33181;49.246;7.372;2023-12-20T00:00:05;9.73;;;6.30;;
47429;SDS011;33181;49.246;7.372;2023-12-20T00:02:32;8.50;;;5.90;;
47429;SDS011;33181;49.246;7.372;2023-12-20T00:04:57;8.67;;;6.13;;
47429;SDS011;33181;49.246;7.372;2023-12-20T00:07:23;8.27;;;6.10;;
47429;SDS011;33181;49.246;7.372;2023-12-20T00:09:49;11.50;;;6.90;;
47429;SDS011;33181;49.246;7.372;2023-12-20T00:12:15;10.70;;;7.00;;
47429;SDS011;33181;49.246;7.372;2023-12-20T00:14:41;11.37;;;7.33;;
47429;SDS011;33181;49.246;7.372;2023-12-20T00:17:06;10.80;;;6.73;;
47429;SDS011;33181;49.246;7.372;2023-12-20T00:19:32;12.17;;;6.80;;
47429;SDS011;33181;49.246;7.372;2023-12-20T00:21:58;10.77;;;7.07;;
47429;SDS011;33181;49.246;7.372;2023-12-20T00:24:24;11.37;;;7.20;;
47429;SDS011;33181;49.246;7.372;2023-12-20T00:26:50;11.77;;;7.00;;
47429;SDS011;33181;49.246;7.372;2023-12-20T00:29:16;9.07;;;6.57;;
47429;SDS011;33181;49.246;7.372;2023-12-20T00:31:42;9.30;;;6.43;;
47429;SDS011;33181;49.246;7.372;2023-12-20T00:34:08;10.93;;;7.30;;
47429;SDS011;33181;49.246;7.372;2023-12-20T00:36:33;9.73;;;6.47;;
47429;SDS011;33181;49.246;7.372;2023-12-20T00:38:59;7.57;;;5.53;;
47429;SDS011;33181;49.246;7.372;2023-12-20T00:41:25;8.67;;;6.10;;
47429;SDS011;33181;49.246;7.372;2023-12-20T00:43:51;8.47;;;5.73;;
47429;SDS011;33181;49.246;7.372;2023-12-20T00:46:16;8.67;;;5.80;;
47429;SDS011;33181;49.246;7.372;2023-12-20T00:48:42;10.33;;;6.37;;
47429;SDS011;33181;49.246;7.372;2023-12-20T00:51:10;8.87;;;6.13;;
47429;SDS011;33181;49.246;7.372;2023-12-20T00:53:36;9.53;;;6.23;;
47429;SDS011;33181;49.246;7.372;2023-12-20T00:56:02;9.00;;;6.20;;
47429;SDS011;33181;49.246;7.372;2023-12-20T00:58:28;9.30;;;6.57;;
47429;SDS011;33181;49.246;7.372;2023-12-20T01:00:53;8.57;;;6.17;;
47429;SDS011;33181;49.246;7.372;2023-12-20T01:03:19;7.70;;;5.57;;
47429;SDS011;33181;49.246;7.372;2023-12-20T01:05:45;8.00;;;5.57;;
47429;SDS011;33181;49.246;7.372;2023-12-20T01:08:10;8.43;;;6.00;;
47429;SDS011;33181;49.246;7.372;2023-12-20T01:10:37;10.20;;;6.60;;
47429;SDS011;33181;49.246;7.372;2023-12-20T01:13:03;8.23;;;5.90;;
47429;SDS011;33181;49.246;7.372;2023-12-20T01:15:29;8.97;;;6.20;;
47429;SDS011;33181;49.246;7.372;2023-12-20T01:17:55;7.90;;;5.80;;
47429;SDS011;33181;49.246;7.372;2023-12-20T01:20:21;8.50;;;5.60;;
47429;SDS011;33181;49.246;7.372;2023-12-20T01:22:47;10.30;;;6.53;;
47429;SDS011;33181;49.246;7.372;2023-12-20T01:25:13;8.60;;;6.03;;
47429;SDS011;33181;49.246;7.372;2023-12-20T01:27:39;9.33;;;6.60;;
47429;SDS011;33181;49.246;7.372;2023-12-20T01:30:04;8.97;;;6.00;;
47429;SDS011;33181;49.246;7.372;2023-12-20T01:32:31;9.20;;;6.33;;
47429;SDS011;33181;49.246;7.372;2023-12-20T01:34:56;8.97;;;6.53;;
47429;SDS011;33181;49.246;7.372;2023-12-20T01:37:22;8.80;;;6.27;;
47429;SDS011;33181;49.246;7.372;2023-12-20T01:39:50;9.77;;;6.97;;
47429;SDS011;33181;49.246;7.372;2023-12-20T01:42:16;10.53;;;7.10;;
47429;SDS011;33181;49.246;7.372;2023-12-20T01:44:41;9.47;;;6.37;;
47429;SDS011;33181;49.246;7.372;2023-12-20T01:47:07;8.83;;;6.47;;
47429;SDS011;33181;49.246;7.372;2023-12-20T01:49:33;8.90;;;6.23;;
47429;SDS011;33181;49.246;7.372;2023-12-20T01:51:59;9.70;;;6.80;;
47429;SDS011;33181;49.246;7.372;2023-12-20T01:54:25;10.40;;;6.60;;
47429;SDS011;33181;49.246;7.372;2023-12-20T01:56:53;9.27;;;6.90;;
47429;SDS011;33181;49.246;7.372;2023-12-20T01:59:19;9.40;;;6.47;;
47429;SDS011;33181;49.246;7.372;2023-12-20T02:01:46;9.50;;;7.30;;
47429;SDS011;33181;49.246;7.372;2023-12-20T02:04:12;9.73;;;7.47;;
47429;SDS011;33181;49.246;7.372;2023-12-20T02:06:39;9.63;;;7.07;;
47429;SDS011;33181;49.246;7.372;2023-12-20T02:09:05;10.57;;;7.63;;
47429;SDS011;33181;49.246;7.372;2023-12-20T02:11:32;10.50;;;7.60;;
47429;SDS011;33181;49.246;7.372;2023-12-20T02:14:00;10.83;;;8.10;;
47429;SDS011;33181;49.246;7.372;2023-12-20T02:16:26;10.13;;;7.40;;
47429;SDS011;33181;49.246;7.372;2023-12-20T02:18:53;11.23;;;7.63;;
47429;SDS011;33181;49.246;7.372;2023-12-20T02:21:24;10.30;;;7.37;;
47429;SDS011;33181;49.246;7.372;2023-12-20T02:24:01;11.77;;;7.77;;
47429;SDS011;33181;49.246;7.372;2023-12-20T02:26:27;11.13;;;7.60;;
47429;SDS011;33181;49.246;7.372;2023-12-20T02:28:53;11.90;;;7.50;;
47429;SDS011;33181;49.246;7.372;2023-12-20T02:31:23;10.60;;;7.30;;
47429;SDS011;33181;49.246;7.372;2023-12-20T02:33:48;11.20;;;8.40;;
47429;SDS011;33181;49.246;7.372;2023-12-20T02:36:14;10.63;;;7.87;;
47429;SDS011;33181;49.246;7.372;2023-12-20T02:38:40;11.63;;;8.43;;
47429;SDS011;33181;49.246;7.372;2023-12-20T02:41:06;11.80;;;8.07;;
47429;SDS011;33181;49.246;7.372;2023-12-20T02:43:32;10.53;;;7.00;;
47429;SDS011;33181;49.246;7.372;2023-12-20T02:45:58;12.17;;;8.57;;
47429;SDS011;33181;49.246;7.372;2023-12-20T02:48:24;11.20;;;8.63;;
47429;SDS011;33181;49.246;7.372;2023-12-20T02:50:49;12.20;;;8.70;;
47429;SDS011;33181;49.246;7.372;2023-12-20T02:53:15;11.70;;;7.87;;
47429;SDS011;33181;49.246;7.372;2023-12-20T02:55:41;13.07;;;8.93;;
47429;SDS011;33181;49.246;7.372;2023-12-20T02:58:07;10.73;;;7.90;;
47429;SDS011;33181;49.246;7.372;2023-12-20T03:00:33;11.93;;;8.30;;
47429;SDS011;33181;49.246;7.372;2023-12-20T03:02:59;10.70;;;8.10;;
47429;SDS011;33181;49.246;7.372;2023-12-20T03:05:24;12.50;;;8.40;;
47429;SDS011;33181;49.246;7.372;2023-12-20T03:07:50;11.37;;;8.30;;
47429;SDS011;33181;49.246;7.372;2023-12-20T03:10:16;11.70;;;8.60;;
47429;SDS011;33181;49.246;7.372;2023-12-20T03:12:43;12.63;;;8.20;;
47429;SDS011;33181;49.246;7.372;2023-12-20T03:15:09;11.30;;;8.60;;
47429;SDS011;33181;49.246;7.372;2023-12-20T03:17:35;13.10;;;9.17;;
47429;SDS011;33181;49.246;7.372;2023-12-20T03:20:01;14.10;;;10.17;;
47429;SDS011;33181;49.246;7.372;2023-12-20T03:22:27;15.57;;;10.40;;
47429;SDS011;33181;49.246;7.372;2023-12-20T03:24:53;16.20;;;10.43;;
47429;SDS011;33181;49.246;7.372;2023-12-20T03:27:18;14.30;;;9.77;;
47429;SDS011;33181;49.246;7.372;2023-12-20T03:29:44;15.27;;;10.20;;
47429;SDS011;33181;49.246;7.372;2023-12-20T03:32:10;15.03;;;10.47;;
47429;SDS011;33181;49.246;7.372;2023-12-20T03:34:36;15.43;;;10.43;;
47429;SDS011;33181;49.246;7.372;2023-12-20T03:37:01;16.83;;;10.80;;
47429;SDS011;33181;49.246;7.372;2023-12-20T03:39:27;15.30;;;10.47;;
47429;SDS011;33181;49.246;7.372;2023-12-20T03:41:53;15.70;;;10.60;;
47429;SDS011;33181;49.246;7.372;2023-12-20T03:44:19;17.20;;;11.60;;
47429;SDS011;33181;49.246;7.372;2023-12-20T03:46:45;17.17;;;11.17;;
47429;SDS011;33181;49.246;7.372;2023-12-20T03:49:11;15.73;;;10.80;;
47429;SDS011;33181;49.246;7.372;2023-12-20T03:51:37;16.87;;;11.03;;
47429;SDS011;33181;49.246;7.372;2023-12-20T03:54:03;16.13;;;10.87;;
47429;SDS011;33181;49.246;7.372;2023-12-20T03:56:28;17.27;;;11.77;;
47429;SDS011;33181;49.246;7.372;2023-12-20T03:58:54;18.90;;;11.90;;
47429;SDS011;33181;49.246;7.372;2023-12-20T04:01:20;15.40;;;10.93;;
47429;SDS011;33181;49.246;7.372;2023-12-20T04:03:45;15.50;;;11.17;;
47429;SDS011;33181;49.246;7.372;2023-12-20T04:06:16;15.17;;;10.77;;
47429;SDS011;33181;49.246;7.372;2023-12-20T04:08:44;15.50;;;10.67;;
47429;SDS011;33181;49.246;7.372;2023-12-20T04:11:10;16.40;;;10.37;;
47429;SDS011;33181;49.246;7.372;2023-12-20T04:13:36;15.07;;;11.03;;
47429;SDS011;33181;49.246;7.372;2023-12-20T04:16:02;16.30;;;11.07;;
47429;SDS011;33181;49.246;7.372;2023-12-20T04:18:28;14.90;;;10.77;;
47429;SDS011;33181;49.246;7.372;2023-12-20T04:20:54;13.70;;;10.30;;
47429;SDS011;33181;49.246;7.372;2023-12-20T04:23:19;14.00;;;9.63;;
47429;SDS011;33181;49.246;7.372;2023-12-20T04:25:45;15.00;;;10.43;;
47429;SDS011;33181;49.246;7.372;2023-12-20T04:28:11;15.43;;;10.40;;
47429;SDS011;33181;49.246;7.372;2023-12-20T04:30:37;15.70;;;11.53;;
47429;SDS011;33181;49.246;7.372;2023-12-20T04:33:03;13.60;;;9.70;;
47429;SDS011;33181;49.246;7.372;2023-12-20T04:35:29;14.03;;;10.13;;
47429;SDS011;33181;49.246;7.372;2023-12-20T04:37:54;12.97;;;9.97;;
47429;SDS011;33181;49.246;7.372;2023-12-20T04:40:20;15.90;;;10.53;;
47429;SDS011;33181;49.246;7.372;2023-12-20T04:42:46;15.63;;;10.37;;
47429;SDS011;33181;49.246;7.372;2023-12-20T04:45:12;18.60;;;10.20;;
47429;SDS011;33181;49.246;7.372;2023-12-20T04:47:38;14.30;;;10.07;;
47429;SDS011;33181;49.246;7.372;2023-12-20T04:50:04;15.50;;;9.93;;
47429;SDS011;33181;49.246;7.372;2023-12-20T04:52:31;15.43;;;10.60;;
47429;SDS011;33181;49.246;7.372;2023-12-20T04:54:56;15.13;;;10.27;;
47429;SDS011;33181;49.246;7.372;2023-12-20T04:57:22;14.80;;;9.87;;
47429;SDS011;33181;49.246;7.372;2023-12-20T04:59:48;12.30;;;9.07;;
47429;SDS011;33181;49.246;7.372;2023-12-20T05:02:14;12.27;;;8.60;;
47429;SDS011;33181;49.246;7.372;2023-12-20T05:04:39;12.37;;;8.83;;
47429;SDS011;33181;49.246;7.372;2023-12-20T05:07:06;15.17;;;8.50;;
47429;SDS011;33181;49.246;7.372;2023-12-20T05:09:32;9.83;;;7.17;;
47429;SDS011;33181;49.246;7.372;2023-12-20T05:11:58;10.80;;;7.33;;
47429;SDS011;33181;49.246;7.372;2023-12-20T05:14:24;11.63;;;6.53;;
47429;SDS011;33181;49.246;7.372;2023-12-20T05:16:50;10.10;;;6.57;;
47429;SDS011;33181;49.246;7.372;2023-12-20T05:19:16;10.63;;;6.27;;
47429;SDS011;33181;49.246;7.372;2023-12-20T05:21:42;12.10;;;6.40;;
47429;SDS011;33181;49.246;7.372;2023-12-20T05:24:07;9.03;;;6.20;;
47429;SDS011;33181;49.246;7.372;2023-12-20T05:26:33;8.53;;;6.20;;
47429;SDS011;33181;49.246;7.372;2023-12-20T05:28:59;10.63;;;6.70;;
47429;SDS011;33181;49.246;7.372;2023-12-20T05:31:25;10.30;;;6.80;;
47429;SDS011;33181;49.246;7.372;2023-12-20T05:33:50;10.80;;;7.87;;
47429;SDS011;33181;49.246;7.372;2023-12-20T05:36:16;11.50;;;7.30;;
47429;SDS011;33181;49.246;7.372;2023-12-20T05:38:42;11.97;;;7.10;;
47429;SDS011;33181;49.246;7.372;2023-12-20T05:41:08;10.67;;;7.37;;
47429;SDS011;33181;49.246;7.372;2023-12-20T05:43:35;10.70;;;6.40;;
47429;SDS011;33181;49.246;7.372;2023-12-20T05:46:00;10.10;;;6.90;;
47429;SDS011;33181;49.246;7.372;2023-12-20T05:48:26;11.93;;;6.27;;
47429;SDS011;33181;49.246;7.372;2023-12-20T05:50:52;9.33;;;6.50;;
47429;SDS011;33181;49.246;7.372;2023-12-20T05:53:18;11.20;;;5.60;;
47429;SDS011;33181;49.246;7.372;2023-12-20T05:55:44;8.50;;;5.53;;
47429;SDS011;33181;49.246;7.372;2023-12-20T05:58:09;9.37;;;5.10;;
47429;SDS011;33181;49.246;7.372;2023-12-20T06:00:35;8.80;;;5.00;;
47429;SDS011;33181;49.246;7.372;2023-12-20T06:03:01;7.70;;;4.30;;
47429;SDS011;33181;49.246;7.372;2023-12-20T06:05:27;9.33;;;4.30;;
47429;SDS011;33181;49.246;7.372;2023-12-20T06:07:53;7.57;;;4.07;;
47429;SDS011;33181;49.246;7.372;2023-12-20T06:10:20;8.10;;;4.13;;
47429;SDS011;33181;49.246;7.372;2023-12-20T06:12:47;16.60;;;7.17;;
47429;SDS011;33181;49.246;7.372;2023-12-20T06:15:15;7.63;;;5.07;;
47429;SDS011;33181;49.246;7.372;2023-12-20T06:17:40;24.17;;;10.90;;
47429;SDS011;33181;49.246;7.372;2023-12-20T06:20:07;9.80;;;4.00;;
47429;SDS011;33181;49.246;7.372;2023-12-20T06:22:34;41.77;;;17.27;;
47429;SDS011;33181;49.246;7.372;2023-12-20T06:25:01;93.57;;;35.83;;
47429;SDS011;33181;49.246;7.372;2023-12-20T06:27:28;166.80;;;59.80;;
47429;SDS011;33181;49.246;7.372;2023-12-20T06:29:54;178.83;;;70.97;;
47429;SDS011;33181;49.246;7.372;2023-12-20T06:32:19;243.07;;;103.87;;
47429;SDS011;33181;49.246;7.372;2023-12-20T06:34:45;193.17;;;84.70;;
47429;SDS011;33181;49.246;7.372;2023-12-20T06:37:11;104.90;;;48.50;;
47429;SDS011;33181;49.246;7.372;2023-12-20T06:39:40;31.23;;;16.03;;
47429;SDS011;33181;49.246;7.372;2023-12-20T06:42:05;54.50;;;33.37;;
47429;SDS011;33181;49.246;7.372;2023-12-20T06:44:31;93.90;;;49.60;;
47429;SDS011;33181;49.246;7.372;2023-12-20T06:46:57;208.40;;;79.57;;
47429;SDS011;33181;49.246;7.372;2023-12-20T06:49:23;287.90;;;100.67;;
47429;SDS011;33181;49.246;7.372;2023-12-20T06:51:49;164.93;;;60.67;;
47429;SDS011;33181;49.246;7.372;2023-12-20T06:54:15;88.57;;;34.40;;
47429;SDS011;33181;49.246;7.372;2023-12-20T06:56:40;31.60;;;12.93;;
47429;SDS011;33181;49.246;7.372;2023-12-20T06:59:06;26.47;;;11.50;;
47429;SDS011;33181;49.246;7.372;2023-12-20T07:01:32;22.13;;;8.23;;
47429;SDS011;33181;49.246;7.372;2023-12-20T07:03:58;14.10;;;7.90;;
47429;SDS011;33181;49.246;7.372;2023-12-20T07:06:23;15.60;;;6.50;;
47429;SDS011;33181;49.246;7.372;2023-12-20T07:08:50;19.00;;;10.37;;
47429;SDS011;33181;49.246;7.372;2023-12-20T07:11:17;11.70;;;7.20;;
47429;SDS011;33181;49.246;7.372;2023-12-20T07:13:43;13.03;;;6.80;;
47429;SDS011;33181;49.246;7.372;2023-12-20T07:16:10;13.00;;;5.90;;
47429;SDS011;33181;49.246;7.372;2023-12-20T07:18:35;8.07;;;5.37;;
47429;SDS011;33181;49.246;7.372;2023-12-20T07:21:01;11.17;;;5.50;;
47429;SDS011;33181;49.246;7.372;2023-12-20T07:23:27;11.03;;;6.87;;
47429;SDS011;33181;49.246;7.372;2023-12-20T07:25:53;20.40;;;11.17;;
47429;SDS011;33181;49.246;7.372;2023-12-20T07:28:19;21.40;;;11.43;;
47429;SDS011;33181;49.246;7.372;2023-12-20T07:30:44;22.33;;;8.20;;
47429;SDS011;33181;49.246;7.372;2023-12-20T07:33:10;20.30;;;10.00;;
47429;SDS011;33181;49.246;7.372;2023-12-20T07:35:37;42.23;;;25.10;;
47429;SDS011;33181;49.246;7.372;2023-12-20T07:38:03;13.97;;;9.03;;
47429;SDS011;33181;49.246;7.372;2023-12-20T07:40:29;9.83;;;5.13;;
47429;SDS011;33181;49.246;7.372;2023-12-20T07:42:57;8.77;;;4.33;;
47429;SDS011;33181;49.246;7.372;2023-12-20T07:45:23;10.70;;;4.77;;
47429;SDS011;33181;49.246;7.372;2023-12-20T07:47:49;11.93;;;4.73;;
47429;SDS011;33181;49.246;7.372;2023-12-20T07:50:15;7.13;;;4.37;;
47429;SDS011;33181;49.246;7.372;2023-12-20T07:52:41;10.33;;;4.63;;
47429;SDS011;33181;49.246;7.372;2023-12-20T07:55:07;11.73;;;3.83;;
47429;SDS011;33181;49.246;7.372;2023-12-20T07:57:33;13.57;;;4.17;;
47429;SDS011;33181;49.246;7.372;2023-12-20T07:59:58;9.97;;;3.90;;
47429;SDS011;33181;49.246;7.372;2023-12-20T08:02:24;10.30;;;4.27;;
47429;SDS011;33181;49.246;7.372;2023-12-20T08:04:50;8.60;;;4.20;;
47429;SDS011;33181;49.246;7.372;2023-12-20T08:07:15;8.73;;;4.63;;
47429;SDS011;33181;49.246;7.372;2023-12-20T08:09:41;14.90;;;5.03;;
47429;SDS011;33181;49.246;7.372;2023-12-20T08:12:08;7.97;;;4.17;;
47429;SDS011;33181;49.246;7.372;2023-12-20T08:14:34;9.03;;;4.70;;
47429;SDS011;33181;49.246;7.372;2023-12-20T08:17:00;12.30;;;4.80;;
47429;SDS011;33181;49.246;7.372;2023-12-20T08:19:26;7.07;;;4.40;;
47429;SDS011;33181;49.246;7.372;2023-12-20T08:21:51;10.67;;;4.70;;
47429;SDS011;33181;49.246;7.372;2023-12-20T08:24:17;10.67;;;5.67;;
47429;SDS011;33181;49.246;7.372;2023-12-20T08:26:43;11.53;;;4.73;;
47429;SDS011;33181;49.246;7.372;2023-12-20T08:29:08;11.87;;;4.70;;
47429;SDS011;33181;49.246;7.372;2023-12-20T08:31:34;13.73;;;4.30;;
47429;SDS011;33181;49.246;7.372;2023-12-20T08:34:00;12.27;;;4.83;;
47429;SDS011;33181;49.246;7.372;2023-12-20T08:36:25;10.33;;;5.00;;
47429;SDS011;33181;49.246;7.372;2023-12-20T08:38:51;7.63;;;4.27;;
47429;SDS011;33181;49.246;7.372;2023-12-20T08:41:17;11.63;;;4.70;;
47429;SDS011;33181;49.246;7.372;2023-12-20T08:43:43;13.03;;;5.00;;
47429;SDS011;33181;49.246;7.372;2023-12-20T08:46:09;30.17;;;15.80;;
47429;SDS011;33181;49.246;7.372;2023-12-20T08:48:35;12.63;;;6.10;;
47429;SDS011;33181;49.246;7.372;2023-12-20T08:51:00;12.10;;;5.20;;
47429;SDS011;33181;49.246;7.372;2023-12-20T08:53:26;19.50;;;7.50;;
47429;SDS011;33181;49.246;7.372;2023-12-20T08:55:52;10.80;;;6.10;;
47429;SDS011;33181;49.246;7.372;2023-12-20T08:58:18;9.80;;;5.10;;
47429;SDS011;33181;49.246;7.372;2023-12-20T09:00:43;9.90;;;5.50;;
47429;SDS011;33181;49.246;7.372;2023-12-20T09:03:10;10.63;;;6.10;;
47429;SDS011;33181;49.246;7.372;2023-12-20T09:05:35;14.67;;;5.70;;
47429;SDS011;33181;49.246;7.372;2023-12-20T09:08:01;14.60;;;6.93;;
47429;SDS011;33181;49.246;7.372;2023-12-20T09:10:28;26.80;;;11.00;;
47429;SDS011;33181;49.246;7.372;2023-12-20T09:12:54;14.70;;;7.70;;
47429;SDS011;33181;49.246;7.372;2023-12-20T09:15:23;27.47;;;10.67;;
47429;SDS011;33181;49.246;7.372;2023-12-20T09:17:50;12.70;;;6.03;;
47429;SDS011;33181;49.246;7.372;2023-12-20T09:20:16;8.07;;;5.20;;
47429;SDS011;33181;49.246;7.372;2023-12-20T09:22:42;12.70;;;6.03;;
47429;SDS011;33181;49.246;7.372;2023-12-20T09:25:09;10.13;;;5.70;;
47429;SDS011;33181;49.246;7.372;2023-12-20T09:27:36;17.23;;;6.67;;
47429;SDS011;33181;49.246;7.372;2023-12-20T09:30:02;12.60;;;6.00;;
47429;SDS011;33181;49.246;7.372;2023-12-20T09:32:30;12.83;;;6.70;;
47429;SDS011;33181;49.246;7.372;2023-12-20T09:34:56;16.57;;;6.23;;
47429;SDS011;33181;49.246;7.372;2023-12-20T09:37:23;13.47;;;7.20;;
47429;SDS011;33181;49.246;7.372;2023-12-20T09:39:51;16.67;;;9.17;;
47429;SDS011;33181;49.246;7.372;2023-12-20T09:42:19;12.60;;;7.30;;
47429;SDS011;33181;49.246;7.372;2023-12-20T09:44:54;18.50;;;6.93;;
47429;SDS011;33181;49.246;7.372;2023-12-20T09:47:23;18.57;;;6.50;;
47429;SDS011;33181;49.246;7.372;2023-12-20T09:49:51;12.37;;;7.10;;
47429;SDS011;33181;49.246;7.372;2023-12-20T09:52:17;20.50;;;7.83;;
47429;SDS011;33181;49.246;7.372;2023-12-20T09:54:47;14.63;;;7.47;;
47429;SDS011;33181;49.246;7.372;2023-12-20T09:57:17;17.13;;;6.90;;
47429;SDS011;33181;49.246;7.372;2023-12-20T09:59:43;14.23;;;7.70;;
47429;SDS011;33181;49.246;7.372;2023-12-20T10:02:10;12.80;;;7.40;;
47429;SDS011;33181;49.246;7.372;2023-12-20T10:04:48;11.67;;;7.17;;
47429;SDS011;33181;49.246;7.372;2023-12-20T10:07:14;16.70;;;7.87;;
47429;SDS011;33181;49.246;7.372;2023-12-20T10:09:40;22.93;;;8.03;;
47429;SDS011;33181;49.246;7.372;2023-12-20T10:12:06;12.10;;;6.77;;
47429;SDS011;33181;49.246;7.372;2023-12-20T10:14:32;17.20;;;7.50;;
47429;SDS011;33181;49.246;7.372;2023-12-20T10:17:05;19.50;;;7.80;;
47429;SDS011;33181;49.246;7.372;2023-12-20T10:19:31;12.90;;;7.13;;
47429;SDS011;33181;49.246;7.372;2023-12-20T10:22:01;13.87;;;7.67;;
47429;SDS011;33181;49.246;7.372;2023-12-20T10:24:30;17.03;;;7.80;;
47429;SDS011;33181;49.246;7.372;2023-12-20T10:27:06;19.93;;;7.80;;
47429;SDS011;33181;49.246;7.372;2023-12-20T10:29:36;13.73;;;7.90;;
47429;SDS011;33181;49.246;7.372;2023-12-20T10:34:48;15.97;;;7.53;;
47429;SDS011;33181;49.246;7.372;2023-12-20T10:37:15;18.77;;;8.20;;
47429;SDS011;33181;49.246;7.372;2023-12-20T10:39:41;12.93;;;7.20;;
47429;SDS011;33181;49.246;7.372;2023-12-20T10:42:11;17.30;;;7.83;;
47429;SDS011;33181;49.246;7.372;2023-12-20T10:44:38;24.40;;;7.80;;
47429;SDS011;33181;49.246;7.372;2023-12-20T10:47:04;15.60;;;7.20;;
47429;SDS011;33181;49.246;7.372;2023-12-20T10:49:30;11.40;;;7.47;;
47429;SDS011;33181;49.246;7.372;2023-12-20T10:52:01;17.90;;;7.50;;
47429;SDS011;33181;49.246;7.372;2023-12-20T10:54:29;14.83;;;7.07;;
47429;SDS011;33181;49.246;7.372;2023-12-20T10:56:55;14.60;;;6.97;;
47429;SDS011;33181;49.246;7.372;2023-12-20T10:59:23;12.20;;;6.30;;
47429;SDS011;33181;49.246;7.372;2023-12-20T11:01:53;19.13;;;6.37;;
47429;SDS011;33181;49.246;7.372;2023-12-20T11:04:25;11.93;;;5.70;;
47429;SDS011;33181;49.246;7.372;2023-12-20T11:12:44;13.00;;;7.50;;
47429;SDS011;33181;49.246;7.372;2023-12-20T11:15:19;10.47;;;5.50;;
47429;SDS011;33181;49.246;7.372;2023-12-20T11:17:46;13.13;;;6.47;;
47429;SDS011;33181;49.246;7.372;2023-12-20T11:20:20;11.77;;;6.07;;
47429;SDS011;33181;49.246;7.372;2023-12-20T11:23:00;13.10;;;5.50;;
47429;SDS011;33181;49.246;7.372;2023-12-20T11:25:26;12.90;;;5.93;;
47429;SDS011;33181;49.246;7.372;2023-12-20T11:28:08;9.60;;;5.80;;
47429;SDS011;33181;49.246;7.372;2023-12-20T11:30:41;14.23;;;5.60;;
47429;SDS011;33181;49.246;7.372;2023-12-20T11:33:10;12.53;;;5.87;;
47429;SDS011;33181;49.246;7.372;2023-12-20T11:35:36;11.97;;;5.33;;
47429;SDS011;33181;49.246;7.372;2023-12-20T11:38:02;13.20;;;5.87;;
47429;SDS011;33181;49.246;7.372;2023-12-20T11:40:27;10.90;;;5.40;;
47429;SDS011;33181;49.246;7.372;2023-12-20T11:42:58;16.33;;;5.97;;
47429;SDS011;33181;49.246;7.372;2023-12-20T11:45:24;17.87;;;6.27;;
47429;SDS011;33181;49.246;7.372;2023-12-20T11:47:51;8.73;;;5.13;;
47429;SDS011;33181;49.246;7.372;2023-12-20T11:50:19;10.93;;;4.93;;
47429;SDS011;33181;49.246;7.372;2023-12-20T11:52:46;12.50;;;5.50;;
47429;SDS011;33181;49.246;7.372;2023-12-20T11:55:14;13.47;;;4.87;;
47429;SDS011;33181;49.246;7.372;2023-12-20T11:57:41;15.07;;;4.90;;
47429;SDS011;33181;49.246;7.372;2023-12-20T12:00:08;16.00;;;4.97;;
47429;SDS011;33181;49.246;7.372;2023-12-20T12:02:35;17.37;;;4.73;;
47429;SDS011;33181;49.246;7.372;2023-12-20T12:05:01;17.10;;;5.30;;
47429;SDS011;33181;49.246;7.372;2023-12-20T12:07:27;15.13;;;4.80;;
47429;SDS011;33181;49.246;7.372;2023-12-20T12:09:53;10.73;;;4.30;;
47429;SDS011;33181;49.246;7.372;2023-12-20T12:12:21;17.03;;;4.60;;
47429;SDS011;33181;49.246;7.372;2023-12-20T12:15:07;13.83;;;4.10;;
47429;SDS011;33181;49.246;7.372;2023-12-20T12:18:03;13.07;;;4.57;;
47429;SDS011;33181;49.246;7.372;2023-12-20T12:20:30;12.73;;;4.30;;
47429;SDS011;33181;49.246;7.372;2023-12-20T12:25:32;7.93;;;4.10;;
47429;SDS011;33181;49.246;7.372;2023-12-20T12:28:02;11.70;;;3.50;;
47429;SDS011;33181;49.246;7.372;2023-12-20T12:30:28;11.60;;;3.87;;
47429;SDS011;33181;49.246;7.372;2023-12-20T12:32:55;9.07;;;3.80;;
47429;SDS011;33181;49.246;7.372;2023-12-20T12:35:21;8.93;;;3.87;;
47429;SDS011;33181;49.246;7.372;2023-12-20T12:37:47;9.13;;;3.83;;
47429;SDS011;33181;49.246;7.372;2023-12-20T12:40:14;15.90;;;3.90;;
47429;SDS011;33181;49.246;7.372;2023-12-20T12:42:42;14.40;;;3.90;;
47429;SDS011;33181;49.246;7.372;2023-12-20T12:45:10;10.70;;;4.40;;
47429;SDS011;33181;49.246;7.372;2023-12-20T12:47:39;10.43;;;4.50;;
47429;SDS011;33181;49.246;7.372;2023-12-20T12:50:05;9.07;;;5.00;;
47429;SDS011;33181;49.246;7.372;2023-12-20T12:52:31;17.27;;;4.57;;
47429;SDS011;33181;49.246;7.372;2023-12-20T12:54:58;10.83;;;4.40;;
47429;SDS011;33181;49.246;7.372;2023-12-20T12:57:24;11.33;;;4.13;;
47429;SDS011;33181;49.246;7.372;2023-12-20T12:59:49;10.77;;;4.20;;
47429;SDS011;33181;49.246;7.372;2023-12-20T13:02:15;13.27;;;3.97;;
47429;SDS011;33181;49.246;7.372;2023-12-20T13:04:41;13.93;;;4.00;;
47429;SDS011;33181;49.246;7.372;2023-12-20T13:07:08;11.37;;;3.93;;
47429;SDS011;33181;49.246;7.372;2023-12-20T13:09:38;11.10;;;3.70;;
47429;SDS011;33181;49.246;7.372;2023-12-20T13:12:05;11.50;;;4.00;;
47429;SDS011;33181;49.246;7.372;2023-12-20T13:14:32;8.47;;;4.03;;
47429;SDS011;33181;49.246;7.372;2023-12-20T13:17:00;12.33;;;4.53;;
47429;SDS011;33181;49.246;7.372;2023-12-20T13:19:26;11.33;;;4.07;;
47429;SDS011;33181;49.246;7.372;2023-12-20T13:21:52;10.63;;;4.30;;
47429;SDS011;33181;49.246;7.372;2023-12-20T13:24:18;13.77;;;5.20;;
47429;SDS011;33181;49.246;7.372;2023-12-20T13:26:44;7.23;;;4.20;;
47429;SDS011;33181;49.246;7.372;2023-12-20T13:29:10;11.37;;;4.10;;
47429;SDS011;33181;49.246;7.372;2023-12-20T13:31:37;11.30;;;4.60;;
47429;SDS011;33181;49.246;7.372;2023-12-20T13:34:03;9.33;;;3.97;;
47429;SDS011;33181;49.246;7.372;2023-12-20T13:36:29;13.63;;;3.90;;
47429;SDS011;33181;49.246;7.372;2023-12-20T13:38:55;10.30;;;4.23;;
47429;SDS011;33181;49.246;7.372;2023-12-20T13:41:20;10.67;;;4.20;;
47429;SDS011;33181;49.246;7.372;2023-12-20T13:43:46;14.43;;;4.43;;
47429;SDS011;33181;49.246;7.372;2023-12-20T13:46:12;8.93;;;3.93;;
47429;SDS011;33181;49.246;7.372;2023-12-20T13:48:39;11.80;;;3.83;;
47429;SDS011;33181;49.246;7.372;2023-12-20T13:51:04;10.50;;;4.00;;
47429;SDS011;33181;49.246;7.372;2023-12-20T13:53:31;13.80;;;4.23;;
47429;SDS011;33181;49.246;7.372;2023-12-20T13:55:57;15.07;;;4.90;;
47429;SDS011;33181;49.246;7.372;2023-12-20T13:58:22;10.63;;;4.70;;
47429;SDS011;33181;49.246;7.372;2023-12-20T14:00:48;10.43;;;3.97;;
47429;SDS011;33181;49.246;7.372;2023-12-20T14:03:14;13.23;;;4.13;;
47429;SDS011;33181;49.246;7.372;2023-12-20T14:05:40;13.93;;;4.30;;
47429;SDS011;33181;49.246;7.372;2023-12-20T14:08:06;12.00;;;4.03;;
47429;SDS011;33181;49.246;7.372;2023-12-20T14:10:32;14.13;;;4.40;;
47429;SDS011;33181;49.246;7.372;2023-12-20T14:12:58;13.80;;;4.30;;
47429;SDS011;33181;49.246;7.372;2023-12-20T14:15:23;9.50;;;3.60;;
47429;SDS011;33181;49.246;7.372;2023-12-20T14:17:50;11.63;;;4.60;;
47429;SDS011;33181;49.246;7.372;2023-12-20T14:20:16;12.57;;;4.10;;
47429;SDS011;33181;49.246;7.372;2023-12-20T14:22:42;11.30;;;4.03;;
47429;SDS011;33181;49.246;7.372;2023-12-20T14:25:12;12.40;;;4.40;;
47429;SDS011;33181;49.246;7.372;2023-12-20T14:27:42;10.17;;;3.73;;
47429;SDS011;33181;49.246;7.372;2023-12-20T14:30:10;11.30;;;4.30;;
47429;SDS011;33181;49.246;7.372;2023-12-20T14:32:39;9.60;;;4.10;;
47429;SDS011;33181;49.246;7.372;2023-12-20T14:35:05;18.90;;;4.30;;
47429;SDS011;33181;49.246;7.372;2023-12-20T14:37:31;11.63;;;4.50;;
47429;SDS011;33181;49.246;7.372;2023-12-20T14:39:57;10.93;;;4.30;;
47429;SDS011;33181;49.246;7.372;2023-12-20T14:42:23;13.53;;;4.67;;